Briefing drone pour Fontaine-les-dijon

Rechercher une autre localisation

Conditions de vol :


Nous sommes le : Mardi 22 juin 2021
Il est 23:33 UTC (01:33 LT)

Lever de soleil : 03:17 UTC (05:17 LT)
Coucher de soleil : 20:06 UTC (22:06 LT)


Warning: min(): Array must contain at least one element in /homepages/6/d509196549/htdocs/briefdrone/includes/function/metar/metar.php on line 1265

Météo

L'essentiel des conditions de vol

VIGILANCE MÉTÉO FRANCE - Côte-dOr (21)
Vigilance Jaune : Orages
CARTE TEMSI
CARTES DES FRONTS
METAR de LFSD
LFSD 212300Z AUTO 29003KT 9999 ///CB 17/16 Q1011

Date d'émission: 21/06/2021
Heure d'émission: 23:00 UTC
Vent: 290° pour 3 KT (6 km/h)
Visibilité horizontale: > 10 km
Température: 17 °C
Point de rosée: 16 °C
Humidité: 94%
Pression (QNH): 1011 hPa
TAF de LFSD
LFSD 010600Z 0100/0124 CNL

Conditions prévues :

Heure d'émission : Bulletin éffectué le 01 à 00:00 UTC
Prévision : Valide du 01 a 00:00 UTC au 01 a 23:59 UTC
Nuages : à 0ft (0 m)
WEBCAM POUR FONTAINE-LES-DIJON

Réglementation

Voler en sécurité

CARTES AERONAUTIQUE 1/500.000
CARTES VAC (LFSD)
SUP AIP




Chargement des AIP...
NOTAM (FONTAINE-LES-DIJON + Terrain à proximité / FIR )




Chargement des NOTAMS...
CONTACT PREFECTURE 21
Côte-dOr (21) : pref-drone@cote-dor.gouv.fr


Avertissement : Les données mises à disposition sont indicatives. Oxygène Drone ne pourra être tenu responsable de dégâts causés aux biens et aux personnes.